sensor_id;sensor_type;location;lat;lon;timestamp;temperature;humidity
40123;DHT22;25832;45.490;4.912;2023-05-10T00:00:52;12.60;99.90
40123;DHT22;25832;45.490;4.912;2023-05-10T00:03:18;12.60;99.90
40123;DHT22;25832;45.490;4.912;2023-05-10T00:05:44;12.60;99.90
40123;DHT22;25832;45.490;4.912;2023-05-10T00:08:09;12.60;99.90
40123;DHT22;25832;45.490;4.912;2023-05-10T00:10:35;12.70;99.90
40123;DHT22;25832;45.490;4.912;2023-05-10T00:13:02;12.70;99.90
40123;DHT22;25832;45.490;4.912;2023-05-10T00:15:28;12.70;99.90
40123;DHT22;25832;45.490;4.912;2023-05-10T00:17:56;12.70;99.90
40123;DHT22;25832;45.490;4.912;2023-05-10T00:20:21;12.70;99.90
40123;DHT22;25832;45.490;4.912;2023-05-10T00:22:47;12.70;99.90
40123;DHT22;25832;45.490;4.912;2023-05-10T00:25:13;12.70;99.90
40123;DHT22;25832;45.490;4.912;2023-05-10T00:27:38;12.70;99.90
40123;DHT22;25832;45.490;4.912;2023-05-10T00:30:04;12.70;99.90
40123;DHT22;25832;45.490;4.912;2023-05-10T00:32:31;12.70;99.90
40123;DHT22;25832;45.490;4.912;2023-05-10T00:34:57;12.60;99.90
40123;DHT22;25832;45.490;4.912;2023-05-10T00:37:23;12.60;99.90
40123;DHT22;25832;45.490;4.912;2023-05-10T00:39:48;12.50;99.90
40123;DHT22;25832;45.490;4.912;2023-05-10T00:42:14;12.50;99.90
40123;DHT22;25832;45.490;4.912;2023-05-10T00:44:40;12.50;99.90
40123;DHT22;25832;45.490;4.912;2023-05-10T00:47:05;12.60;99.90
40123;DHT22;25832;45.490;4.912;2023-05-10T00:49:32;12.60;99.90
40123;DHT22;25832;45.490;4.912;2023-05-10T00:51:58;12.60;99.90
40123;DHT22;25832;45.490;4.912;2023-05-10T00:54:24;12.70;99.90
40123;DHT22;25832;45.490;4.912;2023-05-10T00:56:49;12.60;99.90
40123;DHT22;25832;45.490;4.912;2023-05-10T00:59:16;12.50;99.90
40123;DHT22;25832;45.490;4.912;2023-05-10T01:01:44;12.50;99.90
40123;DHT22;25832;45.490;4.912;2023-05-10T01:04:11;12.50;99.90
40123;DHT22;25832;45.490;4.912;2023-05-10T01:06:39;12.40;99.90
40123;DHT22;25832;45.490;4.912;2023-05-10T01:09:05;12.40;99.90
40123;DHT22;25832;45.490;4.912;2023-05-10T01:11:33;12.30;99.90
40123;DHT22;25832;45.490;4.912;2023-05-10T01:13:59;12.20;99.90
40123;DHT22;25832;45.490;4.912;2023-05-10T01:16:25;12.00;99.90
40123;DHT22;25832;45.490;4.912;2023-05-10T01:18:52;11.90;99.90
40123;DHT22;25832;45.490;4.912;2023-05-10T01:21:33;11.70;99.90
40123;DHT22;25832;45.490;4.912;2023-05-10T01:43:53;11.50;99.90
40123;DHT22;25832;45.490;4.912;2023-05-10T01:46:28;11.50;99.90
40123;DHT22;25832;45.490;4.912;2023-05-10T01:48:58;11.50;99.90
40123;DHT22;25832;45.490;4.912;2023-05-10T01:51:29;11.60;99.90
40123;DHT22;25832;45.490;4.912;2023-05-10T01:54:02;11.60;99.90
40123;DHT22;25832;45.490;4.912;2023-05-10T01:56:31;11.60;99.90
40123;DHT22;25832;45.490;4.912;2023-05-10T01:58:58;11.50;99.90
40123;DHT22;25832;45.490;4.912;2023-05-10T02:01:26;11.50;99.90
40123;DHT22;25832;45.490;4.912;2023-05-10T02:03:53;11.50;99.90
40123;DHT22;25832;45.490;4.912;2023-05-10T02:06:20;11.60;99.90
40123;DHT22;25832;45.490;4.912;2023-05-10T02:08:49;11.60;99.90
40123;DHT22;25832;45.490;4.912;2023-05-10T02:11:17;11.60;99.90
40123;DHT22;25832;45.490;4.912;2023-05-10T02:13:44;11.60;99.90
40123;DHT22;25832;45.490;4.912;2023-05-10T02:16:13;11.60;99.90
40123;DHT22;25832;45.490;4.912;2023-05-10T02:18:41;11.70;99.90
40123;DHT22;25832;45.490;4.912;2023-05-10T02:21:08;11.70;99.90
40123;DHT22;25832;45.490;4.912;2023-05-10T02:23:34;11.70;99.90
40123;DHT22;25832;45.490;4.912;2023-05-10T02:26:01;11.80;99.90
40123;DHT22;25832;45.490;4.912;2023-05-10T02:28:28;11.70;99.90
40123;DHT22;25832;45.490;4.912;2023-05-10T02:30:54;11.70;99.90
40123;DHT22;25832;45.490;4.912;2023-05-10T02:33:21;11.70;99.90
40123;DHT22;25832;45.490;4.912;2023-05-10T02:35:47;11.70;99.90
40123;DHT22;25832;45.490;4.912;2023-05-10T02:38:14;11.70;99.90
40123;DHT22;25832;45.490;4.912;2023-05-10T02:40:42;11.70;99.90
40123;DHT22;25832;45.490;4.912;2023-05-10T02:43:12;11.60;99.90
40123;DHT22;25832;45.490;4.912;2023-05-10T02:45:40;11.50;99.90
40123;DHT22;25832;45.490;4.912;2023-05-10T02:48:07;11.50;99.90
40123;DHT22;25832;45.490;4.912;2023-05-10T02:50:33;11.60;99.90
40123;DHT22;25832;45.490;4.912;2023-05-10T02:53:05;11.50;99.90
40123;DHT22;25832;45.490;4.912;2023-05-10T02:55:36;11.40;99.90
40123;DHT22;25832;45.490;4.912;2023-05-10T02:58:03;11.30;99.90
40123;DHT22;25832;45.490;4.912;2023-05-10T03:00:29;11.40;99.90
40123;DHT22;25832;45.490;4.912;2023-05-10T03:02:55;11.30;99.90
40123;DHT22;25832;45.490;4.912;2023-05-10T03:05:21;11.30;99.90
40123;DHT22;25832;45.490;4.912;2023-05-10T03:07:47;11.30;99.90
40123;DHT22;25832;45.490;4.912;2023-05-10T03:10:13;11.40;99.90
40123;DHT22;25832;45.490;4.912;2023-05-10T03:12:56;11.40;99.90
40123;DHT22;25832;45.490;4.912;2023-05-10T03:21:11;11.50;99.90
40123;DHT22;25832;45.490;4.912;2023-05-10T03:23:46;11.60;99.90
40123;DHT22;25832;45.490;4.912;2023-05-10T03:26:22;11.50;99.90
40123;DHT22;25832;45.490;4.912;2023-05-10T03:28:49;11.60;99.90
40123;DHT22;25832;45.490;4.912;2023-05-10T03:31:17;11.60;99.90
40123;DHT22;25832;45.490;4.912;2023-05-10T03:33:49;11.60;99.90
40123;DHT22;25832;45.490;4.912;2023-05-10T03:36:15;11.50;99.90
40123;DHT22;25832;45.490;4.912;2023-05-10T03:38:41;11.40;99.90
40123;DHT22;25832;45.490;4.912;2023-05-10T03:41:07;11.40;99.90
40123;DHT22;25832;45.490;4.912;2023-05-10T03:43:33;11.50;99.90
40123;DHT22;25832;45.490;4.912;2023-05-10T03:45:58;11.40;99.90
40123;DHT22;25832;45.490;4.912;2023-05-10T03:48:24;11.40;99.90
40123;DHT22;25832;45.490;4.912;2023-05-10T03:50:49;11.40;99.90
40123;DHT22;25832;45.490;4.912;2023-05-10T03:53:15;11.30;99.90
40123;DHT22;25832;45.490;4.912;2023-05-10T03:55:41;11.20;99.90
40123;DHT22;25832;45.490;4.912;2023-05-10T03:58:07;11.20;99.90
40123;DHT22;25832;45.490;4.912;2023-05-10T04:00:35;11.10;99.90
40123;DHT22;25832;45.490;4.912;2023-05-10T04:03:01;11.00;99.90
40123;DHT22;25832;45.490;4.912;2023-05-10T04:05:27;10.90;99.90
40123;DHT22;25832;45.490;4.912;2023-05-10T04:07:52;10.80;99.90
40123;DHT22;25832;45.490;4.912;2023-05-10T04:10:18;10.70;99.90
40123;DHT22;25832;45.490;4.912;2023-05-10T04:12:44;10.60;99.90
40123;DHT22;25832;45.490;4.912;2023-05-10T04:15:09;10.50;99.90
40123;DHT22;25832;45.490;4.912;2023-05-10T04:17:35;10.30;99.90
40123;DHT22;25832;45.490;4.912;2023-05-10T04:20:01;10.20;99.90
40123;DHT22;25832;45.490;4.912;2023-05-10T04:22:27;10.10;99.90
40123;DHT22;25832;45.490;4.912;2023-05-10T04:24:54;10.00;99.90
40123;DHT22;25832;45.490;4.912;2023-05-10T04:27:20;10.00;99.90
40123;DHT22;25832;45.490;4.912;2023-05-10T04:29:45;10.00;99.90
40123;DHT22;25832;45.490;4.912;2023-05-10T04:32:11;10.00;99.90
40123;DHT22;25832;45.490;4.912;2023-05-10T04:34:37;10.00;99.90
40123;DHT22;25832;45.490;4.912;2023-05-10T04:37:03;10.10;99.90
40123;DHT22;25832;45.490;4.912;2023-05-10T04:39:28;10.10;99.90
40123;DHT22;25832;45.490;4.912;2023-05-10T04:41:54;10.20;99.90
40123;DHT22;25832;45.490;4.912;2023-05-10T04:44:20;10.40;99.90
40123;DHT22;25832;45.490;4.912;2023-05-10T04:46:45;10.50;99.90
40123;DHT22;25832;45.490;4.912;2023-05-10T04:49:11;10.50;99.90
40123;DHT22;25832;45.490;4.912;2023-05-10T04:51:37;10.60;99.90
40123;DHT22;25832;45.490;4.912;2023-05-10T04:54:02;10.60;99.90
40123;DHT22;25832;45.490;4.912;2023-05-10T04:56:28;10.70;99.90
40123;DHT22;25832;45.490;4.912;2023-05-10T04:58:54;10.70;99.90
40123;DHT22;25832;45.490;4.912;2023-05-10T05:01:24;10.80;99.90
40123;DHT22;25832;45.490;4.912;2023-05-10T05:03:50;10.90;99.90
40123;DHT22;25832;45.490;4.912;2023-05-10T05:06:18;11.10;99.90
40123;DHT22;25832;45.490;4.912;2023-05-10T05:08:43;11.30;99.90
40123;DHT22;25832;45.490;4.912;2023-05-10T05:11:09;11.50;99.90
40123;DHT22;25832;45.490;4.912;2023-05-10T05:13:35;11.60;99.90
40123;DHT22;25832;45.490;4.912;2023-05-10T05:16:01;11.80;99.90
40123;DHT22;25832;45.490;4.912;2023-05-10T05:18:28;11.90;99.90
40123;DHT22;25832;45.490;4.912;2023-05-10T05:20:53;12.00;99.90
40123;DHT22;25832;45.490;4.912;2023-05-10T05:23:19;12.10;99.90
40123;DHT22;25832;45.490;4.912;2023-05-10T05:25:46;12.10;99.90
40123;DHT22;25832;45.490;4.912;2023-05-10T05:28:12;12.20;99.90
40123;DHT22;25832;45.490;4.912;2023-05-10T05:30:37;12.20;99.90
40123;DHT22;25832;45.490;4.912;2023-05-10T05:33:03;12.20;99.90
40123;DHT22;25832;45.490;4.912;2023-05-10T05:35:29;12.20;99.90
40123;DHT22;25832;45.490;4.912;2023-05-10T05:37:55;12.10;99.90
40123;DHT22;25832;45.490;4.912;2023-05-10T05:40:21;12.10;99.90
40123;DHT22;25832;45.490;4.912;2023-05-10T05:42:46;12.20;99.90
40123;DHT22;25832;45.490;4.912;2023-05-10T05:45:12;12.20;99.90
40123;DHT22;25832;45.490;4.912;2023-05-10T05:47:39;12.30;99.90
40123;DHT22;25832;45.490;4.912;2023-05-10T05:50:05;12.50;99.90
40123;DHT22;25832;45.490;4.912;2023-05-10T05:52:31;12.60;99.90
40123;DHT22;25832;45.490;4.912;2023-05-10T05:54:57;12.70;99.90
40123;DHT22;25832;45.490;4.912;2023-05-10T05:57:22;12.80;99.90
40123;DHT22;25832;45.490;4.912;2023-05-10T05:59:48;12.90;99.90
40123;DHT22;25832;45.490;4.912;2023-05-10T06:02:14;12.90;99.90
40123;DHT22;25832;45.490;4.912;2023-05-10T06:04:39;12.80;99.90
40123;DHT22;25832;45.490;4.912;2023-05-10T06:07:05;12.60;99.90
40123;DHT22;25832;45.490;4.912;2023-05-10T06:09:31;12.60;99.90
40123;DHT22;25832;45.490;4.912;2023-05-10T06:11:56;12.60;99.90
40123;DHT22;25832;45.490;4.912;2023-05-10T06:14:23;12.70;99.90
40123;DHT22;25832;45.490;4.912;2023-05-10T06:16:49;12.80;99.90
40123;DHT22;25832;45.490;4.912;2023-05-10T06:19:15;12.80;99.90
40123;DHT22;25832;45.490;4.912;2023-05-10T06:21:40;12.90;99.90
40123;DHT22;25832;45.490;4.912;2023-05-10T06:24:06;13.00;99.90
40123;DHT22;25832;45.490;4.912;2023-05-10T06:26:32;13.10;99.90
40123;DHT22;25832;45.490;4.912;2023-05-10T06:28:58;13.30;99.90
40123;DHT22;25832;45.490;4.912;2023-05-10T06:31:24;13.30;99.90
40123;DHT22;25832;45.490;4.912;2023-05-10T06:33:50;13.40;99.90
40123;DHT22;25832;45.490;4.912;2023-05-10T06:36:16;13.50;99.90
40123;DHT22;25832;45.490;4.912;2023-05-10T06:38:41;13.60;99.90
40123;DHT22;25832;45.490;4.912;2023-05-10T06:41:07;13.70;99.90
40123;DHT22;25832;45.490;4.912;2023-05-10T06:43:33;13.90;99.90
40123;DHT22;25832;45.490;4.912;2023-05-10T06:45:59;14.10;99.90
40123;DHT22;25832;45.490;4.912;2023-05-10T06:48:24;14.10;99.90
40123;DHT22;25832;45.490;4.912;2023-05-10T06:50:50;14.20;99.90
40123;DHT22;25832;45.490;4.912;2023-05-10T06:53:16;14.20;99.60
40123;DHT22;25832;45.490;4.912;2023-05-10T06:55:41;14.20;99.90
40123;DHT22;25832;45.490;4.912;2023-05-10T06:58:07;14.40;99.90
40123;DHT22;25832;45.490;4.912;2023-05-10T07:00:32;14.50;99.80
40123;DHT22;25832;45.490;4.912;2023-05-10T07:02:58;14.60;99.10
40123;DHT22;25832;45.490;4.912;2023-05-10T07:05:24;14.60;98.40
40123;DHT22;25832;45.490;4.912;2023-05-10T07:07:50;14.40;98.70
40123;DHT22;25832;45.490;4.912;2023-05-10T07:10:15;14.40;98.80
40123;DHT22;25832;45.490;4.912;2023-05-10T07:12:41;14.40;98.40
40123;DHT22;25832;45.490;4.912;2023-05-10T07:15:07;14.50;99.50
40123;DHT22;25832;45.490;4.912;2023-05-10T07:17:33;14.60;98.60
40123;DHT22;25832;45.490;4.912;2023-05-10T07:19:59;14.80;98.50
40123;DHT22;25832;45.490;4.912;2023-05-10T07:22:25;14.90;98.00
40123;DHT22;25832;45.490;4.912;2023-05-10T07:24:51;14.80;98.20
40123;DHT22;25832;45.490;4.912;2023-05-10T07:27:17;14.70;97.60
40123;DHT22;25832;45.490;4.912;2023-05-10T07:29:42;14.60;98.60
40123;DHT22;25832;45.490;4.912;2023-05-10T07:32:08;14.70;99.10
40123;DHT22;25832;45.490;4.912;2023-05-10T07:34:34;15.00;97.50
40123;DHT22;25832;45.490;4.912;2023-05-10T07:37:01;15.20;99.00
40123;DHT22;25832;45.490;4.912;2023-05-10T07:39:27;15.20;97.20
40123;DHT22;25832;45.490;4.912;2023-05-10T07:41:56;15.10;97.90
40123;DHT22;25832;45.490;4.912;2023-05-10T07:44:22;15.00;98.30
40123;DHT22;25832;45.490;4.912;2023-05-10T07:46:48;14.90;99.60
40123;DHT22;25832;45.490;4.912;2023-05-10T07:49:14;15.00;98.90
40123;DHT22;25832;45.490;4.912;2023-05-10T07:51:39;15.00;98.80
40123;DHT22;25832;45.490;4.912;2023-05-10T07:54:05;15.10;98.30
40123;DHT22;25832;45.490;4.912;2023-05-10T07:56:31;15.20;99.60
40123;DHT22;25832;45.490;4.912;2023-05-10T07:58:59;15.30;98.20
40123;DHT22;25832;45.490;4.912;2023-05-10T08:01:25;15.20;96.70
40123;DHT22;25832;45.490;4.912;2023-05-10T08:03:51;15.10;97.30
40123;DHT22;25832;45.490;4.912;2023-05-10T08:06:19;15.00;98.10
40123;DHT22;25832;45.490;4.912;2023-05-10T08:08:46;14.90;98.30
40123;DHT22;25832;45.490;4.912;2023-05-10T08:11:16;14.70;98.10
40123;DHT22;25832;45.490;4.912;2023-05-10T08:13:42;14.60;98.90
40123;DHT22;25832;45.490;4.912;2023-05-10T08:16:07;14.40;98.00
40123;DHT22;25832;45.490;4.912;2023-05-10T08:18:33;14.40;98.40
40123;DHT22;25832;45.490;4.912;2023-05-10T08:20:58;14.30;98.60
40123;DHT22;25832;45.490;4.912;2023-05-10T08:23:24;14.20;98.90
40123;DHT22;25832;45.490;4.912;2023-05-10T08:25:50;14.20;99.10
40123;DHT22;25832;45.490;4.912;2023-05-10T08:28:15;14.00;97.90
40123;DHT22;25832;45.490;4.912;2023-05-10T08:30:41;13.80;99.10
40123;DHT22;25832;45.490;4.912;2023-05-10T08:33:06;13.60;99.70
40123;DHT22;25832;45.490;4.912;2023-05-10T08:35:32;13.50;99.90
40123;DHT22;25832;45.490;4.912;2023-05-10T08:37:59;13.50;99.90
40123;DHT22;25832;45.490;4.912;2023-05-10T08:40:26;13.40;99.40
40123;DHT22;25832;45.490;4.912;2023-05-10T08:42:58;13.30;99.80
40123;DHT22;25832;45.490;4.912;2023-05-10T08:45:24;13.30;99.90
40123;DHT22;25832;45.490;4.912;2023-05-10T08:47:51;13.30;99.90
40123;DHT22;25832;45.490;4.912;2023-05-10T08:50:20;13.30;99.90
40123;DHT22;25832;45.490;4.912;2023-05-10T08:52:48;13.20;99.90
40123;DHT22;25832;45.490;4.912;2023-05-10T08:55:16;13.20;99.90
40123;DHT22;25832;45.490;4.912;2023-05-10T08:57:42;13.10;99.40
40123;DHT22;25832;45.490;4.912;2023-05-10T09:00:08;13.10;99.60
40123;DHT22;25832;45.490;4.912;2023-05-10T09:02:35;13.20;99.90
40123;DHT22;25832;45.490;4.912;2023-05-10T09:05:02;13.20;99.80
40123;DHT22;25832;45.490;4.912;2023-05-10T09:07:30;13.20;99.30
40123;DHT22;25832;45.490;4.912;2023-05-10T09:09:56;13.20;99.90
40123;DHT22;25832;45.490;4.912;2023-05-10T09:12:23;13.20;98.70
40123;DHT22;25832;45.490;4.912;2023-05-10T09:14:50;13.20;99.10
40123;DHT22;25832;45.490;4.912;2023-05-10T09:17:17;13.20;99.40
40123;DHT22;25832;45.490;4.912;2023-05-10T09:19:45;13.20;99.40
40123;DHT22;25832;45.490;4.912;2023-05-10T09:22:10;13.30;99.10
40123;DHT22;25832;45.490;4.912;2023-05-10T09:24:36;13.30;99.50
40123;DHT22;25832;45.490;4.912;2023-05-10T09:27:07;13.30;99.50
40123;DHT22;25832;45.490;4.912;2023-05-10T09:29:43;13.30;99.40
40123;DHT22;25832;45.490;4.912;2023-05-10T09:32:08;13.30;99.60
40123;DHT22;25832;45.490;4.912;2023-05-10T09:34:34;13.30;99.20
40123;DHT22;25832;45.490;4.912;2023-05-10T09:37:02;13.40;99.40
40123;DHT22;25832;45.490;4.912;2023-05-10T09:39:39;13.40;99.10
40123;DHT22;25832;45.490;4.912;2023-05-10T09:42:07;13.50;99.00
40123;DHT22;25832;45.490;4.912;2023-05-10T09:44:33;13.50;99.10
40123;DHT22;25832;45.490;4.912;2023-05-10T09:47:00;13.60;98.30
40123;DHT22;25832;45.490;4.912;2023-05-10T09:49:26;13.70;98.90
40123;DHT22;25832;45.490;4.912;2023-05-10T09:52:03;13.70;98.70
40123;DHT22;25832;45.490;4.912;2023-05-10T09:54:30;13.70;98.10
40123;DHT22;25832;45.490;4.912;2023-05-10T09:56:56;13.60;98.00
40123;DHT22;25832;45.490;4.912;2023-05-10T09:59:25;13.50;99.10
40123;DHT22;25832;45.490;4.912;2023-05-10T10:01:56;13.50;98.60
40123;DHT22;25832;45.490;4.912;2023-05-10T10:04:22;13.50;99.00
40123;DHT22;25832;45.490;4.912;2023-05-10T10:06:59;13.40;98.90
40123;DHT22;25832;45.490;4.912;2023-05-10T10:09:25;13.40;97.10
40123;DHT22;25832;45.490;4.912;2023-05-10T10:11:52;13.30;97.70
40123;DHT22;25832;45.490;4.912;2023-05-10T10:14:22;13.20;97.50
40123;DHT22;25832;45.490;4.912;2023-05-10T10:16:48;13.30;97.70
40123;DHT22;25832;45.490;4.912;2023-05-10T10:19:15;13.30;97.60
40123;DHT22;25832;45.490;4.912;2023-05-10T10:21:40;13.30;97.70
40123;DHT22;25832;45.490;4.912;2023-05-10T10:24:06;13.30;97.70
40123;DHT22;25832;45.490;4.912;2023-05-10T10:26:35;13.30;98.80
40123;DHT22;25832;45.490;4.912;2023-05-10T10:32:22;13.40;99.10
40123;DHT22;25832;45.490;4.912;2023-05-10T10:34:51;13.40;99.50
40123;DHT22;25832;45.490;4.912;2023-05-10T10:37:17;13.50;99.90
40123;DHT22;25832;45.490;4.912;2023-05-10T10:39:43;13.60;99.80
40123;DHT22;25832;45.490;4.912;2023-05-10T10:42:09;13.80;98.50
40123;DHT22;25832;45.490;4.912;2023-05-10T10:44:36;13.80;98.80
40123;DHT22;25832;45.490;4.912;2023-05-10T10:49:51;13.90;98.00
40123;DHT22;25832;45.490;4.912;2023-05-10T10:52:25;14.00;99.10
40123;DHT22;25832;45.490;4.912;2023-05-10T10:55:15;14.10;98.10
40123;DHT22;25832;45.490;4.912;2023-05-10T10:57:47;14.30;95.70
40123;DHT22;25832;45.490;4.912;2023-05-10T11:08:28;14.70;97.60
40123;DHT22;25832;45.490;4.912;2023-05-10T11:11:03;14.80;95.20
40123;DHT22;25832;45.490;4.912;2023-05-10T11:13:30;14.90;97.60
40123;DHT22;25832;45.490;4.912;2023-05-10T11:15:56;14.90;96.10
40123;DHT22;25832;45.490;4.912;2023-05-10T11:18:28;14.90;97.00
40123;DHT22;25832;45.490;4.912;2023-05-10T11:21:00;15.00;96.80
40123;DHT22;25832;45.490;4.912;2023-05-10T11:23:33;15.10;96.70
40123;DHT22;25832;45.490;4.912;2023-05-10T11:26:13;15.10;96.90
40123;DHT22;25832;45.490;4.912;2023-05-10T11:28:43;15.20;97.10
40123;DHT22;25832;45.490;4.912;2023-05-10T11:31:09;15.20;97.20
40123;DHT22;25832;45.490;4.912;2023-05-10T11:33:49;15.20;98.20
40123;DHT22;25832;45.490;4.912;2023-05-10T11:36:20;15.30;98.80
40123;DHT22;25832;45.490;4.912;2023-05-10T11:38:47;15.40;97.90
40123;DHT22;25832;45.490;4.912;2023-05-10T11:41:13;15.50;97.10
40123;DHT22;25832;45.490;4.912;2023-05-10T11:43:39;15.60;97.30
40123;DHT22;25832;45.490;4.912;2023-05-10T11:46:10;15.60;96.40
40123;DHT22;25832;45.490;4.912;2023-05-10T11:48:36;15.70;98.30
40123;DHT22;25832;45.490;4.912;2023-05-10T11:51:02;15.80;97.60
40123;DHT22;25832;45.490;4.912;2023-05-10T11:53:30;16.00;98.40
40123;DHT22;25832;45.490;4.912;2023-05-10T11:56:03;16.30;97.50
40123;DHT22;25832;45.490;4.912;2023-05-10T11:58:30;16.60;98.80
40123;DHT22;25832;45.490;4.912;2023-05-10T12:00:56;16.80;95.70
40123;DHT22;25832;45.490;4.912;2023-05-10T12:03:21;17.10;97.40
40123;DHT22;25832;45.490;4.912;2023-05-10T12:05:47;17.10;93.70
40123;DHT22;25832;45.490;4.912;2023-05-10T12:08:14;17.20;93.80
40123;DHT22;25832;45.490;4.912;2023-05-10T12:10:40;17.20;94.80
40123;DHT22;25832;45.490;4.912;2023-05-10T12:13:11;17.10;93.20
40123;DHT22;25832;45.490;4.912;2023-05-10T12:15:38;17.00;93.90
40123;DHT22;25832;45.490;4.912;2023-05-10T12:18:04;16.70;95.30
40123;DHT22;25832;45.490;4.912;2023-05-10T12:20:30;16.60;94.00
40123;DHT22;25832;45.490;4.912;2023-05-10T12:22:58;16.50;94.00
40123;DHT22;25832;45.490;4.912;2023-05-10T12:25:33;16.50;95.30
40123;DHT22;25832;45.490;4.912;2023-05-10T12:28:00;16.40;94.60
40123;DHT22;25832;45.490;4.912;2023-05-10T12:30:30;16.30;94.20
40123;DHT22;25832;45.490;4.912;2023-05-10T12:33:11;16.40;93.90
40123;DHT22;25832;45.490;4.912;2023-05-10T12:35:58;16.20;95.20
40123;DHT22;25832;45.490;4.912;2023-05-10T12:40:56;16.10;92.00
40123;DHT22;25832;45.490;4.912;2023-05-10T12:43:22;16.30;91.60
40123;DHT22;25832;45.490;4.912;2023-05-10T12:45:48;16.20;91.60
40123;DHT22;25832;45.490;4.912;2023-05-10T12:48:14;16.30;95.10
40123;DHT22;25832;45.490;4.912;2023-05-10T12:50:40;16.40;94.60
40123;DHT22;25832;45.490;4.912;2023-05-10T12:53:06;16.60;93.70
40123;DHT22;25832;45.490;4.912;2023-05-10T12:55:32;16.80;95.80
40123;DHT22;25832;45.490;4.912;2023-05-10T12:57:58;17.10;93.30
40123;DHT22;25832;45.490;4.912;2023-05-10T13:00:23;17.00;93.50
40123;DHT22;25832;45.490;4.912;2023-05-10T13:02:49;16.90;94.00
40123;DHT22;25832;45.490;4.912;2023-05-10T13:05:15;16.90;92.40
40123;DHT22;25832;45.490;4.912;2023-05-10T13:07:40;16.80;92.90
40123;DHT22;25832;45.490;4.912;2023-05-10T13:10:06;16.80;93.80
40123;DHT22;25832;45.490;4.912;2023-05-10T13:12:33;16.80;94.00
40123;DHT22;25832;45.490;4.912;2023-05-10T13:14:58;16.70;93.50
40123;DHT22;25832;45.490;4.912;2023-05-10T13:17:25;16.60;94.00
40123;DHT22;25832;45.490;4.912;2023-05-10T13:19:51;16.50;93.80
40123;DHT22;25832;45.490;4.912;2023-05-10T13:22:16;16.30;95.50
40123;DHT22;25832;45.490;4.912;2023-05-10T13:24:42;16.20;94.60
40123;DHT22;25832;45.490;4.912;2023-05-10T13:27:08;16.00;94.70
40123;DHT22;25832;45.490;4.912;2023-05-10T13:29:34;16.10;94.20
40123;DHT22;25832;45.490;4.912;2023-05-10T13:31:59;16.10;95.30
40123;DHT22;25832;45.490;4.912;2023-05-10T13:34:26;16.20;95.20
40123;DHT22;25832;45.490;4.912;2023-05-10T13:36:52;16.10;94.40
40123;DHT22;25832;45.490;4.912;2023-05-10T13:39:19;16.10;94.10
40123;DHT22;25832;45.490;4.912;2023-05-10T13:41:45;16.10;93.90
40123;DHT22;25832;45.490;4.912;2023-05-10T13:44:15;16.30;94.60
40123;DHT22;25832;45.490;4.912;2023-05-10T13:46:41;16.40;94.30
40123;DHT22;25832;45.490;4.912;2023-05-10T13:49:08;16.70;93.20
40123;DHT22;25832;45.490;4.912;2023-05-10T13:51:34;16.80;93.90
40123;DHT22;25832;45.490;4.912;2023-05-10T13:54:01;16.60;94.00
40123;DHT22;25832;45.490;4.912;2023-05-10T13:56:27;16.30;93.60
40123;DHT22;25832;45.490;4.912;2023-05-10T13:58:53;16.10;94.50
40123;DHT22;25832;45.490;4.912;2023-05-10T14:01:18;16.10;95.00
40123;DHT22;25832;45.490;4.912;2023-05-10T14:03:44;16.20;95.20
40123;DHT22;25832;45.490;4.912;2023-05-10T14:06:10;16.30;93.40
40123;DHT22;25832;45.490;4.912;2023-05-10T14:08:36;16.30;93.50
40123;DHT22;25832;45.490;4.912;2023-05-10T14:11:02;16.40;92.90
40123;DHT22;25832;45.490;4.912;2023-05-10T14:13:27;16.50;93.20
40123;DHT22;25832;45.490;4.912;2023-05-10T14:15:54;16.60;93.30
40123;DHT22;25832;45.490;4.912;2023-05-10T14:18:20;16.70;91.60
40123;DHT22;25832;45.490;4.912;2023-05-10T14:20:46;16.70;91.90
40123;DHT22;25832;45.490;4.912;2023-05-10T14:23:12;16.60;92.00
40123;DHT22;25832;45.490;4.912;2023-05-10T14:25:40;16.70;92.20
40123;DHT22;25832;45.490;4.912;2023-05-10T14:28:06;16.70;92.30
40123;DHT22;25832;45.490;4.912;2023-05-10T14:30:31;16.70;92.60
40123;DHT22;25832;45.490;4.912;2023-05-10T14:32:59;16.70;94.20
40123;DHT22;25832;45.490;4.912;2023-05-10T14:35:27;16.80;91.40
40123;DHT22;25832;45.490;4.912;2023-05-10T14:37:52;16.80;91.20
40123;DHT22;25832;45.490;4.912;2023-05-10T14:40:18;16.90;91.60
40123;DHT22;25832;45.490;4.912;2023-05-10T14:42:44;17.00;91.50
40123;DHT22;25832;45.490;4.912;2023-05-10T14:45:10;17.10;94.00
40123;DHT22;25832;45.490;4.912;2023-05-10T14:47:36;17.30;92.80
40123;DHT22;25832;45.490;4.912;2023-05-10T14:50:02;17.50;87.80
40123;DHT22;25832;45.490;4.912;2023-05-10T14:52:28;17.70;87.70
40123;DHT22;25832;45.490;4.912;2023-05-10T14:54:53;17.90;88.40
40123;DHT22;25832;45.490;4.912;2023-05-10T14:57:19;18.00;90.50
40123;DHT22;25832;45.490;4.912;2023-05-10T14:59:45;17.90;90.40
40123;DHT22;25832;45.490;4.912;2023-05-10T15:02:10;17.90;92.80
40123;DHT22;25832;45.490;4.912;2023-05-10T15:04:36;17.90;91.20
40123;DHT22;25832;45.490;4.912;2023-05-10T15:07:02;17.90;90.20
40123;DHT22;25832;45.490;4.912;2023-05-10T15:09:28;18.10;90.30
40123;DHT22;25832;45.490;4.912;2023-05-10T15:11:54;18.30;92.40
40123;DHT22;25832;45.490;4.912;2023-05-10T15:14:20;18.10;90.40
40123;DHT22;25832;45.490;4.912;2023-05-10T15:16:45;18.00;91.80
40123;DHT22;25832;45.490;4.912;2023-05-10T15:19:12;18.00;89.90
40123;DHT22;25832;45.490;4.912;2023-05-10T15:21:37;17.80;90.90
40123;DHT22;25832;45.490;4.912;2023-05-10T15:24:07;17.80;91.10
40123;DHT22;25832;45.490;4.912;2023-05-10T15:26:33;17.90;90.40
40123;DHT22;25832;45.490;4.912;2023-05-10T15:28:59;17.90;91.70
40123;DHT22;25832;45.490;4.912;2023-05-10T15:31:25;18.00;90.60
40123;DHT22;25832;45.490;4.912;2023-05-10T15:33:50;18.10;89.60
40123;DHT22;25832;45.490;4.912;2023-05-10T15:36:16;18.10;89.00
40123;DHT22;25832;45.490;4.912;2023-05-10T15:38:43;18.30;90.70
40123;DHT22;25832;45.490;4.912;2023-05-10T15:41:09;18.30;89.60
40123;DHT22;25832;45.490;4.912;2023-05-10T15:43:35;18.20;90.20
40123;DHT22;25832;45.490;4.912;2023-05-10T15:46:01;18.00;90.80
40123;DHT22;25832;45.490;4.912;2023-05-10T15:48:27;17.90;90.50
40123;DHT22;25832;45.490;4.912;2023-05-10T15:50:52;17.70;88.80
40123;DHT22;25832;45.490;4.912;2023-05-10T15:53:18;17.50;91.50
40123;DHT22;25832;45.490;4.912;2023-05-10T15:55:44;17.40;90.40
40123;DHT22;25832;45.490;4.912;2023-05-10T15:58:09;17.20;92.20
40123;DHT22;25832;45.490;4.912;2023-05-10T16:00:35;17.40;91.70
40123;DHT22;25832;45.490;4.912;2023-05-10T16:03:01;17.50;92.30
40123;DHT22;25832;45.490;4.912;2023-05-10T16:05:27;17.50;91.40
40123;DHT22;25832;45.490;4.912;2023-05-10T16:07:56;17.50;91.60
40123;DHT22;25832;45.490;4.912;2023-05-10T16:10:22;17.60;88.30